Impacts TAF Board
For situational awareness. Not to be used for flight planning purposes.
IDs:

KASE - Aspen/Pitkin Cnty, CO, US

Issued at 1724 UTC 17 Nov 2019
Updated at 2015 UTC 17 Nov 2019
Potential Impact None Slight Moderate High
Time1953Z 17/21Z 17/22Z 17/23Z 18/00Z 18/01Z 18/02Z 18/03Z 18/04Z 18/05Z 18/06Z 18/07Z 18/08Z 18/09Z>>
Type OBS PRVL PRVL PRVL PRVL PRVL PRVL PRVL PRVL PRVL PRVL PRVL PRVL PRVL
VIS 10 >6 >6 >6 >6 >6 >6 >6 >6 >6 >6 >6 >6 >6
CIG -- -- -- -- -- -- 200 200 200 200 200 200 200 --
Cover CLR FEW FEW FEW FEW FEW BKN BKN BKN BKN BKN BKN BKN FEW
FltCat VFR VFR VFR VFR VFR VFR VFR VFR VFR VFR VFR VFR VFR VFR
WX -- -- -- -- -- -- -- -- -- -- -- -- -- --
WDir 10 350 350 350 350 350 210 210 210 210 210 210 210 220
WSpd 7 7 7 7 7 7 5 5 5 5 5 5 5 4
WGst -- -- -- -- -- -- -- -- -- -- -- -- -- --
Raw TAF
KASE 171724Z 1718/1818 22004KT P6SM FEW250
  FM171900 35007KT P6SM FEW250
  FM180200 21005KT P6SM FEW110 BKN200
  FM180900 22004KT P6SM FEW250


Raw METAR
KASE 171953Z 01007KT 320V030 10SM CLR 09/M10 A3026 RMK AO2 SLP204 T00891100
KASE 171853Z 35009G17KT 10SM CLR 09/M11 A3030 RMK AO2 SLP212 T00891111
KASE 171753Z 01004KT 10SM CLR 08/M10 A3033 RMK AO2 SLP224 T00781100 10078 21061 58003

METAR Board
Radar Display
Forecast Discussion
For situational awareness. Not to be used for flight planning purposes.